createdAt,value
2024-01-24T00:00:11.964Z,98300.25
2024-01-24T00:01:14.414Z,98306.25
2024-01-24T00:02:15.996Z,98302.63
2024-01-24T00:03:17.688Z,98303.06
2024-01-24T00:04:19.461Z,98296.88
2024-01-24T00:05:21.175Z,98289.41
2024-01-24T00:06:22.764Z,98290.06
2024-01-24T00:07:24.238Z,98297.59
2024-01-24T00:08:26.014Z,98290.22
2024-01-24T00:09:27.535Z,98300.59
2024-01-24T00:10:29.036Z,98301.97
2024-01-24T00:11:31.109Z,98298.53
2024-01-24T00:12:32.895Z,98299.63
2024-01-24T00:13:34.576Z,98282.53
2024-01-24T00:14:36.098Z,98295.78
2024-01-24T00:15:37.660Z,98300.69
2024-01-24T00:16:40.342Z,98300.59
2024-01-24T00:17:41.812Z,98297.06
2024-01-24T00:18:43.436Z,98301.03
2024-01-24T00:19:45.031Z,98307.69
2024-01-24T00:20:46.603Z,98311.94
2024-01-24T00:21:48.231Z,98303.63
2024-01-24T00:22:49.738Z,98296.88
2024-01-24T00:23:51.280Z,98289.03
2024-01-24T00:24:52.869Z,98297.03
2024-01-24T00:25:54.541Z,98293.75
2024-01-24T00:26:56.317Z,98288.84
2024-01-24T00:27:58.093Z,98280.56
2024-01-24T00:28:59.689Z,98272.63
2024-01-24T00:30:01.195Z,98267.66
2024-01-24T00:31:02.774Z,98252.91
2024-01-24T00:32:04.804Z,98262.28
2024-01-24T00:33:06.279Z,98266.91
2024-01-24T00:34:07.896Z,98249.34
2024-01-24T00:35:09.667Z,98253.94
2024-01-24T00:36:11.203Z,98245.44
2024-01-24T00:37:12.719Z,98255.91
2024-01-24T00:38:16.825Z,98261.78
2024-01-24T00:39:18.433Z,98264.72
2024-01-24T00:40:19.913Z,98259.81
2024-01-24T00:41:21.499Z,98252.84
2024-01-24T00:42:23.056Z,98250.22
2024-01-24T00:43:24.630Z,98245.00
2024-01-24T00:44:26.276Z,98230.41
2024-01-24T00:45:27.830Z,98228.56
2024-01-24T00:46:29.280Z,98235.22
2024-01-24T00:47:30.823Z,98238.13
2024-01-24T00:48:32.404Z,98234.19
2024-01-24T00:49:33.997Z,98238.03
2024-01-24T00:50:35.885Z,98233.78
2024-01-24T00:51:38.596Z,98245.16
2024-01-24T00:52:40.076Z,98234.47
2024-01-24T00:53:41.850Z,98234.47
2024-01-24T00:54:43.483Z,98227.13
2024-01-24T00:55:46.690Z,98219.41
2024-01-24T00:56:48.818Z,98216.22
2024-01-24T00:57:50.329Z,98211.63
2024-01-24T00:58:54.264Z,98213.91
2024-01-24T00:59:55.807Z,98213.59
2024-01-24T01:00:57.339Z,98213.41
2024-01-24T01:01:58.882Z,98210.31
2024-01-24T01:03:00.474Z,98222.44
2024-01-24T01:04:02.201Z,98207.84
2024-01-24T01:05:05.469Z,98196.66
2024-01-24T01:06:07.421Z,98195.78
2024-01-24T01:07:09.073Z,98196.22
2024-01-24T01:08:10.646Z,98195.97
2024-01-24T01:09:12.834Z,98178.63
2024-01-24T01:10:14.450Z,98189.78
2024-01-24T01:11:18.492Z,98194.50
2024-01-24T01:12:20.207Z,98202.13
2024-01-24T01:13:21.794Z,98204.56
2024-01-24T01:14:23.265Z,98216.56
2024-01-24T01:15:25.767Z,98220.28
2024-01-24T01:16:27.316Z,98224.00
2024-01-24T01:17:28.892Z,98218.81
2024-01-24T01:18:30.639Z,98213.47
2024-01-24T01:19:32.229Z,98213.03
2024-01-24T01:20:33.779Z,98215.94
2024-01-24T01:21:36.070Z,98213.78
2024-01-24T01:22:37.623Z,98217.72
2024-01-24T01:23:39.133Z,98217.09
2024-01-24T01:24:40.604Z,98218.16
2024-01-24T01:25:42.118Z,98217.09
2024-01-24T01:26:43.583Z,98215.22
2024-01-24T01:27:45.146Z,98203.88
2024-01-24T01:28:46.719Z,98202.34
2024-01-24T01:29:48.231Z,98198.19
2024-01-24T01:30:49.884Z,98193.28
2024-01-24T01:31:51.515Z,98192.44
2024-01-24T01:32:53.190Z,98196.84
2024-01-24T01:33:55.272Z,98184.72
2024-01-24T01:34:56.779Z,98183.94
2024-01-24T01:36:09.102Z,98192.78
2024-01-24T01:37:19.128Z,98188.44
2024-01-24T01:38:20.574Z,98182.94
2024-01-24T01:39:25.355Z,98183.63
2024-01-24T01:40:27.610Z,98185.16
2024-01-24T01:41:29.115Z,98180.25
2024-01-24T01:42:30.652Z,98184.28
2024-01-24T01:43:32.261Z,98173.28
2024-01-24T01:44:44.156Z,98180.34
2024-01-24T01:45:45.755Z,98178.72
2024-01-24T01:46:48.890Z,98182.22
2024-01-24T01:47:52.226Z,98183.28
2024-01-24T01:48:56.976Z,98175.91
2024-01-24T01:49:58.663Z,98174.69
2024-01-24T01:51:00.759Z,98173.69
2024-01-24T01:52:02.342Z,98182.31
2024-01-24T01:53:04.829Z,98192.91
2024-01-24T01:54:08.897Z,98175.56
2024-01-24T01:55:12.945Z,98170.63
2024-01-24T01:56:17.849Z,98166.91
2024-01-24T01:57:19.473Z,98165.94
2024-01-24T01:58:22.286Z,98175.75
2024-01-24T01:59:23.824Z,98173.69
2024-01-24T02:00:26.760Z,98174.00
2024-01-24T02:01:28.461Z,98166.50
2024-01-24T02:02:29.957Z,98173.56
2024-01-24T02:03:31.939Z,98157.72
2024-01-24T02:04:33.613Z,98160.44
2024-01-24T02:05:37.372Z,98158.41
2024-01-24T02:06:40.524Z,98164.50
2024-01-24T02:07:46.120Z,98152.25
2024-01-24T02:08:47.728Z,98150.72
2024-01-24T02:09:49.283Z,98152.25
2024-01-24T02:10:50.901Z,98144.72
2024-01-24T02:11:52.372Z,98150.84
2024-01-24T02:12:54.021Z,98144.50
2024-01-24T02:14:00.343Z,98143.22
2024-01-24T02:15:02.950Z,98131.97
2024-01-24T02:16:05.073Z,98136.44
2024-01-24T02:17:07.102Z,98136.09
2024-01-24T02:18:08.661Z,98137.09
2024-01-24T02:19:10.552Z,98131.72
2024-01-24T02:20:13.649Z,98136.75
2024-01-24T02:21:15.208Z,98130.50
2024-01-24T02:22:16.704Z,98127.44
2024-01-24T02:23:20.028Z,98125.81
2024-01-24T02:24:21.514Z,98124.75
2024-01-24T02:25:23.294Z,98127.53
2024-01-24T02:26:24.812Z,98138.38
2024-01-24T02:27:26.343Z,98132.78
2024-01-24T02:28:27.985Z,98129.41
2024-01-24T02:29:29.725Z,98131.38
2024-01-24T02:30:31.345Z,98131.59
2024-01-24T02:31:32.856Z,98127.78
2024-01-24T02:32:34.441Z,98133.25
2024-01-24T02:33:36.071Z,98124.75
2024-01-24T02:34:37.696Z,98122.31
2024-01-24T02:35:39.309Z,98126.50
2024-01-24T02:36:40.782Z,98120.56
2024-01-24T02:37:42.238Z,98129.75
2024-01-24T02:38:43.722Z,98114.34
2024-01-24T02:39:45.204Z,98114.00
2024-01-24T02:40:46.843Z,98111.91
2024-01-24T02:41:48.405Z,98107.03
2024-01-24T02:42:49.965Z,98093.56
2024-01-24T02:43:51.544Z,98092.22
2024-01-24T02:44:53.128Z,98094.09
2024-01-24T02:45:55.286Z,98097.06
2024-01-24T02:46:56.801Z,98094.84
2024-01-24T02:47:58.505Z,98092.09
2024-01-24T02:49:00.069Z,98093.38
2024-01-24T02:50:04.050Z,98088.56
2024-01-24T02:51:05.605Z,98077.06
2024-01-24T02:52:07.395Z,98089.06
2024-01-24T02:53:09.316Z,98085.44
2024-01-24T02:54:10.848Z,98071.44
2024-01-24T02:55:17.827Z,98075.56
2024-01-24T02:56:20.002Z,98067.59
2024-01-24T02:57:21.591Z,98078.19
2024-01-24T02:58:23.235Z,98062.09
2024-01-24T02:59:26.086Z,98060.19
2024-01-24T03:00:29.150Z,98046.22
2024-01-24T03:01:30.537Z,98052.56
2024-01-24T03:02:32.472Z,98054.69
2024-01-24T03:03:33.994Z,98054.22
2024-01-24T03:04:35.632Z,98057.03
2024-01-24T03:05:37.159Z,98057.91
2024-01-24T03:06:41.456Z,98052.22
2024-01-24T03:07:43.042Z,98060.09
2024-01-24T03:08:58.470Z,98069.16
2024-01-24T03:09:59.947Z,98060.94
2024-01-24T03:11:01.426Z,98060.53
2024-01-24T03:12:03.114Z,98069.47
2024-01-24T03:13:04.814Z,98082.28
2024-01-24T03:14:06.365Z,98078.78
2024-01-24T03:15:08.293Z,98081.06
2024-01-24T03:16:09.889Z,98083.03
2024-01-24T03:17:11.431Z,98083.44
2024-01-24T03:18:13.271Z,98092.84
2024-01-24T03:19:15.334Z,98075.31
2024-01-24T03:20:18.114Z,98074.25
2024-01-24T03:21:20.245Z,98078.22
2024-01-24T03:22:21.975Z,98076.84
2024-01-24T03:23:25.828Z,98069.91
2024-01-24T03:24:27.463Z,98060.56
2024-01-24T03:25:29.020Z,98079.44
2024-01-24T03:26:30.539Z,98079.88
2024-01-24T03:27:32.075Z,98081.91
2024-01-24T03:28:34.265Z,98084.25
2024-01-24T03:29:35.824Z,98076.72
2024-01-24T03:30:37.334Z,98066.97
2024-01-24T03:31:43.292Z,98077.50
2024-01-24T03:32:44.843Z,98067.69
2024-01-24T03:33:46.453Z,98078.94
2024-01-24T03:39:37.294Z,98065.88
2024-01-24T03:40:38.982Z,98055.81
2024-01-24T03:41:40.487Z,98049.78
2024-01-24T03:42:42.148Z,98050.13
2024-01-24T03:43:43.881Z,98044.59
2024-01-24T03:44:45.502Z,98056.22
2024-01-24T03:45:47.089Z,98046.19
2024-01-24T03:46:48.927Z,98046.63
2024-01-24T03:47:51.768Z,98048.63
2024-01-24T03:48:53.963Z,98049.34
2024-01-24T03:49:55.519Z,98054.06
2024-01-24T03:50:57.108Z,98055.25
2024-01-24T03:51:58.681Z,98042.81
2024-01-24T03:53:03.895Z,98054.06
2024-01-24T03:54:05.854Z,98051.16
2024-01-24T03:55:07.865Z,98034.47
2024-01-24T03:56:09.488Z,98031.16
2024-01-24T03:57:10.948Z,98039.50
2024-01-24T03:58:12.453Z,98046.41
2024-01-24T03:59:13.960Z,98048.06
2024-01-24T04:00:17.398Z,98046.47
2024-01-24T04:01:20.249Z,98048.34
2024-01-24T04:02:21.799Z,98048.72
2024-01-24T04:03:23.549Z,98044.00
2024-01-24T04:04:25.557Z,98047.28
2024-01-24T04:05:27.215Z,98049.94
2024-01-24T04:06:28.774Z,98052.25
2024-01-24T04:07:30.345Z,98042.66
2024-01-24T04:08:31.911Z,98038.88
2024-01-24T04:09:33.663Z,98029.94
2024-01-24T04:10:35.219Z,98030.97
2024-01-24T04:11:38.717Z,98039.44
2024-01-24T04:12:40.257Z,98042.66
2024-01-24T04:13:44.042Z,98039.91
2024-01-24T04:14:45.691Z,98055.41
2024-01-24T04:15:47.361Z,98058.84
2024-01-24T04:16:49.076Z,98057.81
2024-01-24T04:17:50.676Z,98067.16
2024-01-24T04:18:52.313Z,98060.38
2024-01-24T04:19:53.909Z,98053.31
2024-01-24T04:20:55.396Z,98051.19
2024-01-24T04:21:57.112Z,98059.06
2024-01-24T04:22:59.268Z,98051.78
2024-01-24T04:24:00.729Z,98035.53
2024-01-24T04:25:02.609Z,98028.06
2024-01-24T04:26:05.554Z,98045.50
2024-01-24T04:27:07.836Z,98053.81
2024-01-24T04:28:10.375Z,98050.34
2024-01-24T04:29:13.824Z,98056.16
2024-01-24T04:30:16.661Z,98048.34
2024-01-24T04:31:18.383Z,98052.13
2024-01-24T04:32:19.989Z,98039.91
2024-01-24T04:33:21.586Z,98050.34
2024-01-24T04:34:23.348Z,98044.78
2024-01-24T04:35:24.924Z,98056.91
2024-01-24T04:36:26.471Z,98048.66
2024-01-24T04:37:28.009Z,98049.91
2024-01-24T04:38:29.556Z,98060.09
2024-01-24T04:39:31.662Z,98047.22
2024-01-24T04:40:33.311Z,98045.06
2024-01-24T04:41:37.469Z,98040.16
2024-01-24T04:42:40.034Z,98032.81
2024-01-24T04:43:41.612Z,98037.25
2024-01-24T04:44:43.451Z,98030.50
2024-01-24T04:45:44.955Z,98029.41
2024-01-24T04:46:46.501Z,98017.78
2024-01-24T04:47:48.167Z,98009.25
2024-01-24T04:48:49.980Z,98027.78
2024-01-24T04:49:51.799Z,98012.81
2024-01-24T04:50:53.432Z,98020.38
2024-01-24T04:51:55.069Z,98034.34
2024-01-24T04:52:56.673Z,98025.69
2024-01-24T04:53:58.245Z,98027.13
2024-01-24T04:54:59.755Z,98012.47
2024-01-24T04:56:04.394Z,98012.53
2024-01-24T04:57:05.921Z,98015.16
2024-01-24T04:58:07.384Z,98014.75
2024-01-24T04:59:08.943Z,98009.31
2024-01-24T05:00:13.297Z,98012.75
2024-01-24T05:01:15.231Z,98013.16
2024-01-24T05:02:17.333Z,98010.59
2024-01-24T05:03:18.960Z,98011.00
2024-01-24T05:04:20.586Z,98012.63
2024-01-24T05:05:22.204Z,98020.81
2024-01-24T05:06:23.856Z,98018.91
2024-01-24T05:07:25.447Z,98020.19
2024-01-24T05:08:26.926Z,98010.75
2024-01-24T05:09:28.524Z,98005.19
2024-01-24T05:10:31.212Z,98014.28
2024-01-24T05:11:32.701Z,98010.19
2024-01-24T05:12:34.955Z,98003.75
2024-01-24T05:13:37.798Z,98002.69
2024-01-24T05:14:39.322Z,97997.88
2024-01-24T05:15:40.874Z,97996.44
2024-01-24T05:16:42.962Z,97990.75
2024-01-24T05:17:45.161Z,98001.72
2024-01-24T05:18:46.825Z,98000.56
2024-01-24T05:19:49.328Z,98002.03
2024-01-24T05:20:51.026Z,97989.13
2024-01-24T05:21:52.682Z,97984.34
2024-01-24T05:22:54.616Z,97976.38
2024-01-24T05:23:56.128Z,97987.25
2024-01-24T05:24:57.743Z,97970.66
2024-01-24T05:25:59.357Z,97981.69
2024-01-24T05:27:00.876Z,97984.25
2024-01-24T05:28:02.379Z,97977.88
2024-01-24T05:29:05.781Z,97983.59
2024-01-24T05:30:16.398Z,97989.28
2024-01-24T05:31:26.464Z,97987.47
2024-01-24T05:32:28.157Z,97981.09
2024-01-24T05:33:29.821Z,97985.84
2024-01-24T05:34:31.428Z,97977.88
2024-01-24T05:35:34.177Z,97972.97
2024-01-24T05:36:36.998Z,97967.78
2024-01-24T05:37:38.563Z,97984.72
2024-01-24T05:38:40.040Z,97988.88
2024-01-24T05:39:43.206Z,97967.09
2024-01-24T05:40:45.620Z,97980.72
2024-01-24T05:41:47.226Z,97975.50
2024-01-24T05:42:49.638Z,97978.16
2024-01-24T05:43:53.806Z,97977.09
2024-01-24T05:44:57.338Z,97972.56
2024-01-24T05:45:58.977Z,97965.53
2024-01-24T05:47:00.596Z,97966.94
2024-01-24T05:48:02.164Z,97959.81
2024-01-24T05:49:03.914Z,97960.59
2024-01-24T05:50:10.655Z,97970.69
2024-01-24T05:51:12.937Z,97961.66
2024-01-24T05:52:14.616Z,97974.75
2024-01-24T05:53:16.131Z,97977.09
2024-01-24T05:54:17.729Z,97977.09
2024-01-24T05:55:19.523Z,97972.22
2024-01-24T05:56:21.334Z,97964.66
2024-01-24T05:57:25.376Z,97976.72
2024-01-24T05:58:26.954Z,97973.28
2024-01-24T05:59:28.772Z,97972.06
2024-01-24T06:00:30.483Z,97975.88
2024-01-24T06:01:32.246Z,97965.69
2024-01-24T06:02:33.908Z,97957.13
2024-01-24T06:03:35.818Z,97965.38
2024-01-24T06:04:37.637Z,97956.72
2024-01-24T06:05:39.526Z,97963.16
2024-01-24T06:06:41.731Z,97963.09
2024-01-24T06:07:43.718Z,97971.00
2024-01-24T06:08:45.430Z,97970.63
2024-01-24T06:09:46.987Z,97968.75
2024-01-24T06:10:48.540Z,97959.00
2024-01-24T06:11:50.209Z,97966.34
2024-01-24T06:12:51.957Z,97957.25
2024-01-24T06:13:54.039Z,97960.56
2024-01-24T06:14:58.199Z,97956.13
2024-01-24T06:15:59.823Z,97958.03
2024-01-24T06:17:02.225Z,97945.22
2024-01-24T06:18:04.236Z,97955.69
2024-01-24T06:19:05.825Z,97959.56
2024-01-24T06:20:10.000Z,97955.44
2024-01-24T06:21:11.514Z,97957.28
2024-01-24T06:22:13.106Z,97952.44
2024-01-24T06:23:14.672Z,97967.50
2024-01-24T06:24:16.281Z,97960.38
2024-01-24T06:25:17.805Z,97961.09
2024-01-24T06:26:19.420Z,97960.22
2024-01-24T06:27:21.348Z,97946.03
2024-01-24T06:28:22.892Z,97946.41
2024-01-24T06:30:15.088Z,97939.91
2024-01-24T06:30:47.171Z,97942.16
2024-01-24T06:31:49.022Z,97950.50
2024-01-24T06:32:52.723Z,97941.91
2024-01-24T06:33:55.156Z,97952.47
2024-01-24T06:34:56.874Z,97947.56
2024-01-24T06:35:59.074Z,97955.38
2024-01-24T06:37:00.594Z,97955.81
2024-01-24T06:38:02.487Z,97957.78
2024-01-24T06:39:04.063Z,97961.16
2024-01-24T06:40:07.087Z,97962.66
2024-01-24T06:41:08.577Z,97962.97
2024-01-24T06:42:10.677Z,97967.03
2024-01-24T06:43:15.665Z,97972.06
2024-01-24T06:44:17.133Z,97964.91
2024-01-24T06:45:19.020Z,97959.97
2024-01-24T06:46:20.563Z,97949.84
2024-01-24T06:47:22.335Z,97948.81
2024-01-24T06:48:24.154Z,97942.09
2024-01-24T06:49:25.830Z,97941.66
2024-01-24T06:50:27.534Z,97943.22
2024-01-24T06:51:29.061Z,97936.41
2024-01-24T06:52:31.892Z,97940.47
2024-01-24T06:53:33.462Z,97944.97
2024-01-24T06:54:37.960Z,97950.63
2024-01-24T06:55:39.551Z,97947.75
2024-01-24T06:56:41.177Z,97933.81
2024-01-24T06:57:42.807Z,97932.63
2024-01-24T06:58:44.434Z,97931.56
2024-01-24T06:59:45.962Z,97927.06
2024-01-24T07:00:47.876Z,97928.63
2024-01-24T07:01:49.493Z,97916.25
2024-01-24T07:02:51.080Z,97922.34
2024-01-24T07:03:52.634Z,97932.09
2024-01-24T07:04:54.232Z,97952.44
2024-01-24T07:05:55.939Z,97939.28
2024-01-24T07:06:57.434Z,97947.94
2024-01-24T07:07:59.228Z,97946.53
2024-01-24T07:09:00.709Z,97946.94
2024-01-24T07:10:02.298Z,97940.53
2024-01-24T07:11:04.068Z,97947.69
2024-01-24T07:12:06.079Z,97940.63
2024-01-24T07:13:07.615Z,97957.19
2024-01-24T07:14:09.208Z,97954.91
2024-01-24T07:15:10.690Z,97936.81
2024-01-24T07:16:12.307Z,97949.75
2024-01-24T07:17:13.834Z,97948.22
2024-01-24T07:18:15.437Z,97941.47
2024-01-24T07:19:17.880Z,97943.78
2024-01-24T07:20:19.653Z,97941.88
2024-01-24T07:21:21.339Z,97924.53
2024-01-24T07:22:22.907Z,97934.72
2024-01-24T07:23:24.412Z,97914.09
2024-01-24T07:24:25.925Z,97915.97
2024-01-24T07:25:27.530Z,97914.00
2024-01-24T07:26:29.669Z,97905.78
2024-01-24T07:27:32.517Z,97927.03
2024-01-24T07:28:36.220Z,97912.81
2024-01-24T07:29:37.741Z,97909.78
2024-01-24T07:30:39.281Z,97912.81
2024-01-24T07:31:41.195Z,97912.06
2024-01-24T07:32:43.595Z,97895.88
2024-01-24T07:33:45.295Z,97914.75
2024-01-24T07:34:47.053Z,97912.50
2024-01-24T07:35:48.717Z,97918.22
2024-01-24T07:36:50.641Z,97925.75
2024-01-24T07:37:52.305Z,97924.69
2024-01-24T07:38:54.336Z,97911.09
2024-01-24T07:39:56.262Z,97933.31
2024-01-24T07:40:57.895Z,97911.53
2024-01-24T07:41:59.490Z,97921.28
2024-01-24T07:43:01.058Z,97921.75
2024-01-24T07:44:02.743Z,97916.94
2024-01-24T07:45:04.900Z,97924.88
2024-01-24T07:46:07.153Z,97908.66
2024-01-24T07:47:09.356Z,97913.22
2024-01-24T07:48:15.352Z,97929.44
2024-01-24T07:49:17.303Z,97916.59
2024-01-24T07:50:19.223Z,97923.34
2024-01-24T07:51:21.913Z,97930.84
2024-01-24T07:52:32.200Z,97922.19
2024-01-24T07:53:39.819Z,97936.50
2024-01-24T07:54:41.487Z,97933.88
2024-01-24T07:55:53.416Z,97927.03
2024-01-24T07:57:00.689Z,97918.31
2024-01-24T07:58:02.461Z,97931.88
2024-01-24T07:59:05.313Z,97937.16
2024-01-24T08:00:07.767Z,97931.88
2024-01-24T08:01:10.281Z,97942.88
2024-01-24T08:02:13.949Z,97939.13
2024-01-24T08:03:15.634Z,97930.75
2024-01-24T08:04:17.733Z,97924.41
2024-01-24T08:05:20.853Z,97908.22
2024-01-24T08:06:23.191Z,97908.47
2024-01-24T08:07:25.595Z,97900.53
2024-01-24T08:08:27.374Z,97904.66
2024-01-24T08:09:29.109Z,97909.94
2024-01-24T08:10:30.839Z,97909.13
2024-01-24T08:11:32.512Z,97917.41
2024-01-24T08:12:34.025Z,97932.50
2024-01-24T08:13:35.555Z,97936.69
2024-01-24T08:14:38.138Z,97938.53
2024-01-24T08:15:41.869Z,97943.41
2024-01-24T08:19:09.206Z,97947.13
2024-01-24T08:20:11.321Z,97942.22
2024-01-24T08:21:13.483Z,97926.00
2024-01-24T08:22:15.346Z,97920.38
2024-01-24T08:23:17.088Z,97923.41
2024-01-24T08:24:18.618Z,97905.72
2024-01-24T08:25:20.378Z,97914.69
2024-01-24T08:26:22.356Z,97915.50
2024-01-24T08:27:24.392Z,97911.69
2024-01-24T08:28:26.000Z,97915.00
2024-01-24T08:29:36.151Z,97926.75
2024-01-24T08:30:39.644Z,97922.16
2024-01-24T08:31:41.227Z,97915.38
2024-01-24T08:32:43.505Z,97910.00
2024-01-24T08:33:47.783Z,97908.50
2024-01-24T08:34:50.729Z,97922.03
2024-01-24T08:35:52.360Z,97922.38
2024-01-24T08:36:53.908Z,97922.78
2024-01-24T08:37:55.743Z,97933.72
2024-01-24T08:38:57.378Z,97933.72
2024-01-24T08:39:59.054Z,97931.50
2024-01-24T08:41:00.665Z,97923.22
2024-01-24T08:42:05.818Z,97930.75
2024-01-24T08:43:07.433Z,97931.19
2024-01-24T08:44:09.014Z,97941.78
2024-01-24T08:45:10.903Z,97939.94
2024-01-24T08:46:12.453Z,97929.38
2024-01-24T08:47:14.113Z,97941.16
2024-01-24T08:48:15.825Z,97927.56
2024-01-24T08:49:17.667Z,97948.31
2024-01-24T08:50:19.364Z,97938.16
2024-01-24T08:51:22.463Z,97928.41
2024-01-24T08:52:24.953Z,97910.75
2024-01-24T08:53:26.910Z,97937.50
2024-01-24T08:54:28.632Z,97934.09
2024-01-24T08:55:30.935Z,97926.19
2024-01-24T08:56:32.527Z,97920.91
2024-01-24T08:57:34.323Z,97906.59
2024-01-24T08:58:35.825Z,97920.53
2024-01-24T08:59:40.712Z,97916.81
2024-01-24T09:00:42.612Z,97903.22
2024-01-24T09:01:44.383Z,97913.00
2024-01-24T09:02:48.039Z,97907.31
2024-01-24T09:03:51.102Z,97903.53
2024-01-24T09:04:54.218Z,97897.13
2024-01-24T09:05:55.877Z,97916.34
2024-01-24T09:06:57.779Z,97911.41
2024-01-24T09:07:59.288Z,97898.25
2024-01-24T09:09:00.855Z,97892.94
2024-01-24T09:10:06.121Z,97920.06
2024-01-24T09:11:08.357Z,97912.94
2024-01-24T09:12:10.208Z,97924.63
2024-01-24T09:13:12.186Z,97898.63
2024-01-24T09:14:13.918Z,97903.16
2024-01-24T09:15:15.593Z,97920.81
2024-01-24T09:16:17.314Z,97926.09
2024-01-24T09:17:19.704Z,97910.25
2024-01-24T09:18:23.017Z,97924.59
2024-01-24T09:19:24.876Z,97911.09
2024-01-24T09:20:26.790Z,97919.00
2024-01-24T09:21:28.851Z,97918.28
2024-01-24T09:22:30.367Z,97921.63
2024-01-24T09:23:31.918Z,97922.47
2024-01-24T09:24:33.528Z,97928.53
2024-01-24T09:25:35.056Z,97933.41
2024-01-24T09:26:37.639Z,97948.94
2024-01-24T09:27:39.233Z,97941.50
2024-01-24T09:28:43.753Z,97940.81
2024-01-24T09:29:45.262Z,97936.75
2024-01-24T09:30:46.855Z,97951.66
2024-01-24T09:31:48.404Z,97926.84
2024-01-24T09:32:50.199Z,97937.06
2024-01-24T09:33:52.171Z,97942.78
2024-01-24T09:34:54.113Z,97940.19
2024-01-24T09:35:56.185Z,97948.50
2024-01-24T09:36:58.077Z,97940.97
2024-01-24T09:38:00.505Z,97967.75
2024-01-24T09:39:01.977Z,97962.88
2024-01-24T09:40:04.039Z,97944.78
2024-01-24T09:41:17.194Z,97948.59
2024-01-24T09:42:21.784Z,97949.38
2024-01-24T09:43:25.133Z,97950.53
2024-01-24T09:44:31.738Z,97957.31
2024-01-24T09:45:38.203Z,97963.69
2024-01-24T09:46:43.465Z,97975.78
2024-01-24T09:47:47.560Z,97971.69
2024-01-24T09:48:49.383Z,97973.31
2024-01-24T09:49:52.161Z,97969.63
2024-01-24T09:50:53.897Z,97966.22
2024-01-24T09:51:55.820Z,97960.56
2024-01-24T09:52:58.123Z,97959.38
2024-01-24T09:54:06.794Z,97968.09
2024-01-24T09:55:10.345Z,97958.63
2024-01-24T09:56:12.945Z,97954.44
2024-01-24T09:57:14.630Z,97961.66
2024-01-24T09:58:19.093Z,97966.19
2024-01-24T09:59:21.077Z,97953.69
2024-01-24T10:00:22.579Z,97960.50
2024-01-24T10:01:27.132Z,97949.19
2024-01-24T10:02:29.287Z,97949.94
2024-01-24T10:03:34.495Z,97943.84
2024-01-24T10:04:38.977Z,97950.22
2024-01-24T10:05:44.314Z,97952.78
2024-01-24T10:06:47.535Z,97953.53
2024-01-24T10:07:49.214Z,97956.16
2024-01-24T10:08:50.824Z,97965.59
2024-01-24T10:10:10.418Z,97956.16
2024-01-24T10:11:12.548Z,97965.16
2024-01-24T10:12:14.248Z,97935.72
2024-01-24T10:13:15.704Z,97963.56
2024-01-24T10:14:19.354Z,97956.00
2024-01-24T10:15:22.569Z,97967.31
2024-01-24T10:16:28.279Z,97963.47
2024-01-24T10:17:30.025Z,97954.03
2024-01-24T10:18:31.875Z,97957.00
2024-01-24T10:19:33.616Z,97968.28
2024-01-24T10:20:35.217Z,97949.34
2024-01-24T10:21:36.917Z,97962.44
2024-01-24T10:22:40.168Z,97974.47
2024-01-24T10:23:43.301Z,97975.88
2024-01-24T10:24:45.304Z,97982.88
2024-01-24T10:25:47.153Z,97986.94
2024-01-24T10:26:52.761Z,97998.84
2024-01-24T10:27:55.366Z,97996.91
2024-01-24T10:28:57.106Z,97990.03
2024-01-24T10:29:58.620Z,98005.50
2024-01-24T10:31:02.743Z,98011.47
2024-01-24T10:32:10.179Z,97996.38
2024-01-24T10:33:15.106Z,97995.56
2024-01-24T10:34:17.373Z,98001.50
2024-01-24T10:35:19.272Z,97993.63
2024-01-24T10:36:27.070Z,97999.22
2024-01-24T10:37:34.010Z,97992.47
2024-01-24T10:38:48.058Z,97987.19
2024-01-24T10:39:54.652Z,97991.97
2024-01-24T10:41:00.305Z,97994.03
2024-01-24T10:42:11.103Z,97975.25
2024-01-24T10:43:15.088Z,97983.81
2024-01-24T10:44:18.158Z,97990.97
2024-01-24T10:45:21.362Z,97991.31
2024-01-24T10:46:23.988Z,97983.34
2024-01-24T10:47:25.775Z,97984.00
2024-01-24T10:48:28.938Z,97989.94
2024-01-24T10:49:30.998Z,97990.63
2024-01-24T10:50:33.081Z,98003.59
2024-01-24T10:51:35.267Z,98009.25
2024-01-24T10:52:39.857Z,98003.47
2024-01-24T10:53:42.958Z,98001.63
2024-01-24T10:54:45.353Z,98005.75
2024-01-24T10:55:50.068Z,98001.84
2024-01-24T10:56:52.183Z,98001.38
2024-01-24T10:57:54.643Z,98008.03
2024-01-24T10:59:02.905Z,98005.09
2024-01-24T11:00:12.025Z,98002.13
2024-01-24T11:01:16.431Z,97998.00
2024-01-24T11:02:18.188Z,97989.28
2024-01-24T11:03:19.918Z,97984.25
2024-01-24T11:04:24.225Z,97990.13
2024-01-24T11:05:38.377Z,97978.09
2024-01-24T11:06:46.212Z,97981.41
2024-01-24T11:07:55.450Z,97989.88
2024-01-24T11:09:25.091Z,97991.66
2024-01-24T11:10:41.574Z,97984.41
2024-01-24T11:11:44.321Z,97991.59
2024-01-24T11:12:46.054Z,97986.31
2024-01-24T11:13:47.591Z,97985.81
2024-01-24T11:14:49.823Z,98002.03
2024-01-24T11:15:55.923Z,98006.88
2024-01-24T11:16:59.213Z,98002.13
2024-01-24T11:18:18.974Z,98008.66
2024-01-24T11:19:23.477Z,98001.00
2024-01-24T11:20:26.841Z,98007.63
2024-01-24T11:21:30.538Z,98008.38
2024-01-24T11:22:33.308Z,98004.81
2024-01-24T11:23:46.168Z,98007.97
2024-01-24T11:24:48.384Z,98009.13
2024-01-24T11:25:51.314Z,97995.06
2024-01-24T11:26:54.384Z,97987.66
2024-01-24T11:27:58.619Z,97995.16
2024-01-24T11:29:06.892Z,97997.50
2024-01-24T11:30:42.837Z,98009.22
2024-01-24T11:31:44.816Z,97988.94
2024-01-24T11:32:49.322Z,97993.47
2024-01-24T11:34:12.849Z,97997.38
2024-01-24T11:35:35.295Z,97991.25
2024-01-24T11:37:38.947Z,97994.06
2024-01-24T11:38:40.468Z,97992.09
2024-01-24T11:39:42.234Z,97998.38
2024-01-24T11:40:44.884Z,98002.03
2024-01-24T11:41:46.420Z,97994.00
2024-01-24T11:42:57.864Z,97987.06
2024-01-24T11:43:59.573Z,97987.34
2024-01-24T11:47:17.106Z,97997.75
2024-01-24T11:48:18.899Z,97987.97
2024-01-24T11:49:22.898Z,98000.50
2024-01-24T11:50:25.190Z,97979.28
2024-01-24T11:51:26.772Z,97992.19
2024-01-24T11:52:30.645Z,97986.50
2024-01-24T11:53:32.689Z,97980.44
2024-01-24T11:54:34.248Z,97991.78
2024-01-24T11:55:36.283Z,97989.09
2024-01-24T11:56:37.958Z,98002.34
2024-01-24T11:57:40.006Z,97994.00
2024-01-24T11:58:41.644Z,98000.06
2024-01-24T11:59:43.127Z,97997.03
2024-01-24T12:00:45.354Z,97995.13
2024-01-24T12:01:47.383Z,98003.84
2024-01-24T12:02:50.933Z,98013.31
2024-01-24T12:03:52.706Z,98003.09
2024-01-24T12:04:54.643Z,98005.00
2024-01-24T12:05:56.507Z,98001.06
2024-01-24T12:06:58.221Z,97997.22
2024-01-24T12:07:59.815Z,97995.38
2024-01-24T12:09:01.305Z,97988.16
2024-01-24T12:10:03.018Z,97987.03
2024-01-24T12:11:05.276Z,97991.59
2024-01-24T12:12:07.422Z,97983.31
2024-01-24T12:13:10.435Z,97994.28
2024-01-24T12:14:12.323Z,97993.88
2024-01-24T12:15:14.427Z,97996.53
2024-01-24T12:16:16.264Z,97997.28
2024-01-24T12:17:17.899Z,97989.28
2024-01-24T12:18:19.833Z,97982.44
2024-01-24T12:19:22.488Z,97988.09
2024-01-24T12:20:24.437Z,97979.03
2024-01-24T12:21:28.520Z,97989.19
2024-01-24T12:22:30.374Z,97997.09
2024-01-24T12:23:31.948Z,97983.03
2024-01-24T12:24:34.024Z,97997.38
2024-01-24T12:25:36.765Z,97986.00
2024-01-24T12:26:39.853Z,97994.66